Marco Polo — BR2031 — position and weather

sailwx.info

Track history (hours):
 
Tides and Currents Weather Stations Pressure Air Temp Water Temp Dewpoint Dewpoint Depression Visibility Wind Speed Wind Dir Waves Ship Positions

Marco Polo

Last reported at 2014-Sep-22 03:34 UTC. Time now 2014-Sep-22 04:15 UTC.
Position N 24°25' E 118°17'.

Length 32 m.

MMSI: 416000256.

Date/timePositionNaut miles runAvg speedWind from/ knotsBaromVisibWave heightAir tempDewpointWater temp
2014-Sep-22 03:34N 24°25' E 118°17'0 0.0
2014-Sep-22 02:33N 24°25' E 118°17'0 0.5
2014-Sep-22 01:33N 24°25' E 118°17'0 0.1
2014-Sep-22 00:33N 24°25' E 118°17'0 0.0
2014-Sep-21 23:33N 24°25' E 118°17'0 0.0
2014-Sep-21 22:32N 24°25' E 118°17'0 0.0
2014-Sep-21 21:33N 24°25' E 118°17'0 0.0
2014-Sep-21 20:33N 24°25' E 118°17'0 0.0
2014-Sep-21 19:33N 24°25' E 118°17'0 0.0
2014-Sep-21 18:33N 24°25' E 118°17'0 0.0
2014-Sep-21 17:33N 24°25' E 118°17'0 0.0
2014-Sep-21 16:31N 24°25' E 118°17'0 0.0
2014-Sep-21 15:33N 24°25' E 118°17'0 0.0
2014-Sep-21 14:33N 24°25' E 118°17'0 0.0
2014-Sep-21 12:33N 24°25' E 118°17'0 0.0
2014-Sep-21 10:33N 24°25' E 118°17'0 0.0
2014-Sep-21 09:33N 24°25' E 118°17'0 0.0
2014-Sep-21 08:33N 24°25' E 118°17'0 0.0
2014-Sep-21 07:33N 24°25' E 118°17'0 0.1
2014-Sep-21 06:33N 24°25' E 118°17'7 6.8
2014-Sep-21 05:33N 24°31' E 118°13'2 2.2
2014-Sep-21 04:34N 24°32' E 118°11'9 9.0
2014-Sep-21 03:34N 24°25' E 118°17'0 0.5
2014-Sep-21 02:33N 24°25' E 118°17'0 0.0
2014-Sep-21 01:31N 24°25' E 118°17'0 0.0
2014-Sep-21 00:34N 24°25' E 118°17'0 0.0
2014-Sep-20 23:34N 24°25' E 118°17'0 0.0
2014-Sep-20 22:33N 24°25' E 118°17'0 0.0
2014-Sep-20 21:33N 24°25' E 118°17'0 0.0
2014-Sep-20 20:33N 24°25' E 118°17'0 0.0
2014-Sep-20 19:33N 24°25' E 118°17'0 0.0
2014-Sep-20 18:33N 24°25' E 118°17'0 0.0
2014-Sep-20 17:33N 24°25' E 118°17'0 0.0
2014-Sep-20 16:33N 24°25' E 118°17'0 0.0
2014-Sep-20 15:33N 24°25' E 118°17'0 0.0
2014-Sep-20 14:33N 24°25' E 118°17'0 0.0
2014-Sep-20 13:06N 24°25' E 118°17'0 0.0
2014-Sep-20 12:25N 24°25' E 118°17'0 0.0
2014-Sep-20 11:25N 24°25' E 118°17'0 0.3
2014-Sep-20 09:33N 24°25' E 118°17'9 8.8
2014-Sep-20 08:32N 24°32' E 118°11'8 8.2
2014-Sep-20 07:32N 24°26' E 118°17'1 0.9
2014-Sep-20 06:33N 24°25' E 118°17'0 0.5
2014-Sep-20 05:33N 24°25' E 118°17'0 0.0
2014-Sep-20 04:33N 24°25' E 118°17'0 0.0
2014-Sep-20 03:33N 24°25' E 118°17'2 1.9
2014-Sep-20 02:31N 24°27' E 118°17'6 6.4
2014-Sep-20 01:33N 24°32' E 118°12'8 8.1
2014-Sep-20 00:34N 24°25' E 118°17'0 0.0
2014-Sep-19 23:32N 24°25' E 118°17'0 0.0
2014-Sep-19 22:33N 24°25' E 118°17'0 0.0
2014-Sep-19 21:33N 24°25' E 118°17'0 0.0
2014-Sep-19 20:33N 24°25' E 118°17'0 0.0
2014-Sep-19 19:33N 24°25' E 118°17'0 0.0
2014-Sep-19 18:33N 24°25' E 118°17'0 0.0
2014-Sep-19 17:33N 24°25' E 118°17'0 0.0
2014-Sep-19 16:33N 24°25' E 118°17'0 0.0
2014-Sep-19 15:32N 24°25' E 118°17'0 0.0
2014-Sep-19 14:33N 24°25' E 118°17'1 0.2
2014-Sep-19 10:32N 24°26' E 118°17'8 8.5
2014-Sep-19 09:34N 24°32' E 118°11'9 8.6
2014-Sep-19 08:33N 24°25' E 118°17'0 0.3
2014-Sep-19 07:33N 24°25' E 118°17'0 0.0
2014-Sep-19 06:33N 24°25' E 118°17'0 0.0
2014-Sep-19 05:23N 24°25' E 118°17'0 0.0
2014-Sep-19 04:33N 24°25' E 118°17'7 7.0
2014-Sep-19 03:33N 24°31' E 118°13'1 0.6
2014-Sep-19 02:33N 24°31' E 118°13'7 6.8
2014-Sep-19 01:33N 24°25' E 118°17'0 0.5
2014-Sep-19 00:33N 24°25' E 118°17'0 0.0
2014-Sep-18 23:32N 24°25' E 118°17'0 0.0
2014-Sep-18 22:33N 24°25' E 118°17'0 0.0
2014-Sep-18 21:33N 24°25' E 118°17'0 0.0
2014-Sep-18 20:33N 24°25' E 118°17'0 0.0
2014-Sep-18 19:33N 24°25' E 118°17'0 0.0
2014-Sep-18 18:33N 24°25' E 118°17'0 0.0
2014-Sep-18 17:33N 24°25' E 118°17'0 0.0
2014-Sep-18 16:31N 24°25' E 118°17'0 0.0
2014-Sep-18 15:34N 24°25' E 118°17'0 0.0
2014-Sep-18 14:33N 24°25' E 118°17'0 0.0
2014-Sep-18 09:33N 24°25' E 118°17'0 0.0
2014-Sep-18 08:33N 24°25' E 118°17'7 6.8
2014-Sep-18 07:32N 24°31' E 118°13'1 1.0
2014-Sep-18 06:33N 24°32' E 118°12'8 8.2
2014-Sep-18 05:33N 24°25' E 118°17'0 0.1
2014-Sep-18 04:32N 24°25' E 118°17'0 0.0
2014-Sep-18 03:33N 24°25' E 118°17'0 0.0
2014-Sep-18 02:33N 24°25' E 118°17'0 0.0
2014-Sep-18 01:33N 24°25' E 118°17'9 8.8
2014-Sep-18 00:33N 24°32' E 118°11'9 8.8
2014-Sep-17 23:33N 24°25' E 118°17'0 0.0
2014-Sep-17 22:33N 24°25' E 118°17'0 0.0
2014-Sep-17 21:31N 24°25' E 118°17'0 0.0
2014-Sep-17 20:33N 24°25' E 118°17'0 0.0
2014-Sep-17 19:34N 24°25' E 118°17'0 0.0
2014-Sep-17 18:33N 24°25' E 118°17'0 0.0
2014-Sep-17 17:33N 24°25' E 118°17'0 0.0
2014-Sep-17 16:33N 24°25' E 118°17'0 0.0
2014-Sep-17 15:32N 24°25' E 118°17'0 0.0
2014-Sep-17 14:31N 24°25' E 118°17'9 2.2
2014-Sep-17 10:26N 24°32' E 118°11'910.2
2014-Sep-17 09:33N 24°25' E 118°17'0 0.4
2014-Sep-17 08:33N 24°25' E 118°17'0 0.1
2014-Sep-17 07:34N 24°25' E 118°17'0 0.0
2014-Sep-17 06:33N 24°25' E 118°17'0 0.0
2014-Sep-17 05:24N 24°25' E 118°17'0 0.0
2014-Sep-17 04:32N 24°25' E 118°17'1 1.3
2014-Sep-17 03:31N 24°27' E 118°17'1 1.0
2014-Sep-17 02:13N 24°25' E 118°17'0 0.0
2014-Sep-17 01:22N 24°25' E 118°17'0 0.0
2014-Sep-17 00:31N 24°25' E 118°17'0 0.0
2014-Sep-16 23:33N 24°25' E 118°17'0 0.0
2014-Sep-16 22:32N 24°25' E 118°17'0 0.0
2014-Sep-16 21:33N 24°25' E 118°17'0 0.0
2014-Sep-16 20:33N 24°25' E 118°17'0 0.0
2014-Sep-16 19:33N 24°25' E 118°17'0 0.0
2014-Sep-16 18:34N 24°25' E 118°17'0 0.0
2014-Sep-16 17:34N 24°25' E 118°17'0 0.0
2014-Sep-16 16:33N 24°25' E 118°17'0 0.0
2014-Sep-16 15:23N 24°25' E 118°17'0 0.1
2014-Sep-16 09:33N 24°25' E 118°17'9 8.9
2014-Sep-16 08:33N 24°32' E 118°11'8 8.3
2014-Sep-16 07:32N 24°26' E 118°17'1 0.6
2014-Sep-16 06:33N 24°25' E 118°17'0 0.5
2014-Sep-16 05:33N 24°25' E 118°17'0 0.0
2014-Sep-16 04:33N 24°25' E 118°17'6 6.5
2014-Sep-16 03:33N 24°31' E 118°14'1 0.8
2014-Sep-16 02:33N 24°30' E 118°14'6 6.1
2014-Sep-16 01:33N 24°25' E 118°17'0 0.5
2014-Sep-16 00:33N 24°25' E 118°17'0 0.0
2014-Sep-15 23:33N 24°25' E 118°17'0 0.0
2014-Sep-15 22:33N 24°25' E 118°17'0 0.0
2014-Sep-15 21:33N 24°25' E 118°17'0 0.0
2014-Sep-15 20:33N 24°25' E 118°17'0 0.0
2014-Sep-15 19:33N 24°25' E 118°17'0 0.0
2014-Sep-15 18:33N 24°25' E 118°17'0 0.0
2014-Sep-15 17:33N 24°25' E 118°17'0 0.0
2014-Sep-15 16:33N 24°25' E 118°17'0 0.0
2014-Sep-15 15:33N 24°25' E 118°17'0 0.0
2014-Sep-15 14:33N 24°25' E 118°17'0 0.0
2014-Sep-15 09:30N 24°25' E 118°17'0 0.0
2014-Sep-15 08:23N 24°25' E 118°17'0 0.1
2014-Sep-15 07:30N 24°25' E 118°17'8 8.5
2014-Sep-15 06:33N 24°32' E 118°12'1 1.4
2014-Sep-15 05:33N 24°31' E 118°13'7 7.0
2014-Sep-15 04:33N 24°25' E 118°17'0 0.1
2014-Sep-15 03:33N 24°25' E 118°17'4 3.6
2014-Sep-15 02:33N 24°28' E 118°16'4 3.8
2014-Sep-15 01:33N 24°31' E 118°13'7 7.1
2014-Sep-15 00:33N 24°25' E 118°17'0 0.0
2014-Sep-14 17:33N 24°25' E 118°17'0 0.0
2014-Sep-14 16:33N 24°25' E 118°17'0 0.0
2014-Sep-14 15:33N 24°25' E 118°17'0 0.0
2014-Sep-14 14:34N 24°25' E 118°17'0 0.0
2014-Sep-14 10:31N 24°25' E 118°17'9 9.3
2014-Sep-14 09:33N 24°32' E 118°11'9 8.7
2014-Sep-14 08:33N 24°25' E 118°17'0 0.0
2014-Sep-13 18:20N 24°25' E 118°17'0 0.0
2014-Sep-13 09:33N 24°25' E 118°17'0 0.0
2014-Sep-13 08:33N 24°25' E 118°17'7 6.8
2014-Sep-13 07:33N 24°31' E 118°13'1 1.1
2014-Sep-13 06:33N 24°32' E 118°12'8 8.0
2014-Sep-13 05:32N 24°25' E 118°17'0 0.5
2014-Sep-13 04:33N 24°25' E 118°17'0 0.0
2014-Sep-13 03:33N 24°25' E 118°17'0 0.0
2014-Sep-13 02:33N 24°25' E 118°17'3 2.8
2014-Sep-13 01:32N 24°28' E 118°17'4 3.6
2014-Sep-13 00:33N 24°31' E 118°14'7 6.6
2014-Sep-12 23:33N 24°25' E 118°17'0 0.0
2014-Sep-12 22:33N 24°25' E 118°17'0 0.0
2014-Sep-12 21:33N 24°25' E 118°17'0 0.0
2014-Sep-12 20:33N 24°25' E 118°17'0 0.0
2014-Sep-12 19:33N 24°25' E 118°17'0 0.0
2014-Sep-12 18:33N 24°25' E 118°17'0 0.0
2014-Sep-12 17:33N 24°25' E 118°17'0 0.0
2014-Sep-12 16:33N 24°25' E 118°17'0 0.0
2014-Sep-12 15:33N 24°25' E 118°17'0 0.0
2014-Sep-12 14:32N 24°25' E 118°17'0 0.0
2014-Sep-12 13:21N 24°25' E 118°17'0 0.0
2014-Sep-12 11:10N 24°25' E 118°17'914.8
2014-Sep-12 10:33N 24°32' E 118°11'9 8.6
2014-Sep-12 09:30N 24°25' E 118°17'0 0.5
2014-Sep-12 08:34N 24°25' E 118°17'0 0.0
2014-Sep-12 07:33N 24°25' E 118°17'0 0.0
2014-Sep-12 06:33N 24°25' E 118°17'0 0.0
2014-Sep-12 05:33N 24°25' E 118°17'0 0.0
2014-Sep-12 04:33N 24°25' E 118°17'  
Track history (hours):
 
Tides and Currents Weather Stations Pressure Air Temp Water Temp Dewpoint Dewpoint Depression Visibility Wind Speed Wind Dir Waves Ship Positions

Marco Polo

Last reported at 2014-Sep-22 03:34 UTC. Time now 2014-Sep-22 04:15 UTC.
Position N 24°25' E 118°17'.

Length 32 m.

MMSI: 416000256.

Date/timePositionNaut miles runAvg speedWind from/ knotsBaromVisibWave heightAir tempDewpointWater temp
2014-Sep-22 03:34N 24°25' E 118°17'0 0.0
2014-Sep-22 02:33N 24°25' E 118°17'0 0.5
2014-Sep-22 01:33N 24°25' E 118°17'0 0.1
2014-Sep-22 00:33N 24°25' E 118°17'0 0.0
2014-Sep-21 23:33N 24°25' E 118°17'0 0.0
2014-Sep-21 22:32N 24°25' E 118°17'0 0.0
2014-Sep-21 21:33N 24°25' E 118°17'0 0.0
2014-Sep-21 20:33N 24°25' E 118°17'0 0.0
2014-Sep-21 19:33N 24°25' E 118°17'0 0.0
2014-Sep-21 18:33N 24°25' E 118°17'0 0.0
2014-Sep-21 17:33N 24°25' E 118°17'0 0.0
2014-Sep-21 16:31N 24°25' E 118°17'0 0.0
2014-Sep-21 15:33N 24°25' E 118°17'0 0.0
2014-Sep-21 14:33N 24°25' E 118°17'0 0.0
2014-Sep-21 12:33N 24°25' E 118°17'0 0.0
2014-Sep-21 10:33N 24°25' E 118°17'0 0.0
2014-Sep-21 09:33N 24°25' E 118°17'0 0.0
2014-Sep-21 08:33N 24°25' E 118°17'0 0.0
2014-Sep-21 07:33N 24°25' E 118°17'0 0.1
2014-Sep-21 06:33N 24°25' E 118°17'7 6.8
2014-Sep-21 05:33N 24°31' E 118°13'2 2.2
2014-Sep-21 04:34N 24°32' E 118°11'9 9.0
2014-Sep-21 03:34N 24°25' E 118°17'0 0.5
2014-Sep-21 02:33N 24°25' E 118°17'0 0.0
2014-Sep-21 01:31N 24°25' E 118°17'0 0.0
2014-Sep-21 00:34N 24°25' E 118°17'0 0.0
2014-Sep-20 23:34N 24°25' E 118°17'0 0.0
2014-Sep-20 22:33N 24°25' E 118°17'0 0.0
2014-Sep-20 21:33N 24°25' E 118°17'0 0.0
2014-Sep-20 20:33N 24°25' E 118°17'0 0.0
2014-Sep-20 19:33N 24°25' E 118°17'0 0.0
2014-Sep-20 18:33N 24°25' E 118°17'0 0.0
2014-Sep-20 17:33N 24°25' E 118°17'0 0.0
2014-Sep-20 16:33N 24°25' E 118°17'0 0.0
2014-Sep-20 15:33N 24°25' E 118°17'0 0.0
2014-Sep-20 14:33N 24°25' E 118°17'0 0.0
2014-Sep-20 13:06N 24°25' E 118°17'0 0.0
2014-Sep-20 12:25N 24°25' E 118°17'0 0.0
2014-Sep-20 11:25N 24°25' E 118°17'0 0.3
2014-Sep-20 09:33N 24°25' E 118°17'9 8.8
2014-Sep-20 08:32N 24°32' E 118°11'8 8.2
2014-Sep-20 07:32N 24°26' E 118°17'1 0.9
2014-Sep-20 06:33N 24°25' E 118°17'0 0.5
2014-Sep-20 05:33N 24°25' E 118°17'0 0.0
2014-Sep-20 04:33N 24°25' E 118°17'0 0.0
2014-Sep-20 03:33N 24°25' E 118°17'2 1.9
2014-Sep-20 02:31N 24°27' E 118°17'6 6.4
2014-Sep-20 01:33N 24°32' E 118°12'8 8.1
2014-Sep-20 00:34N 24°25' E 118°17'0 0.0
2014-Sep-19 23:32N 24°25' E 118°17'0 0.0
2014-Sep-19 22:33N 24°25' E 118°17'0 0.0
2014-Sep-19 21:33N 24°25' E 118°17'0 0.0
2014-Sep-19 20:33N 24°25' E 118°17'0 0.0
2014-Sep-19 19:33N 24°25' E 118°17'0 0.0
2014-Sep-19 18:33N 24°25' E 118°17'0 0.0
2014-Sep-19 17:33N 24°25' E 118°17'0 0.0
2014-Sep-19 16:33N 24°25' E 118°17'0 0.0
2014-Sep-19 15:32N 24°25' E 118°17'0 0.0
2014-Sep-19 14:33N 24°25' E 118°17'1 0.2
2014-Sep-19 10:32N 24°26' E 118°17'8 8.5
2014-Sep-19 09:34N 24°32' E 118°11'9 8.6
2014-Sep-19 08:33N 24°25' E 118°17'0 0.3
2014-Sep-19 07:33N 24°25' E 118°17'0 0.0
2014-Sep-19 06:33N 24°25' E 118°17'0 0.0
2014-Sep-19 05:23N 24°25' E 118°17'0 0.0
2014-Sep-19 04:33N 24°25' E 118°17'7 7.0
2014-Sep-19 03:33N 24°31' E 118°13'1 0.6
2014-Sep-19 02:33N 24°31' E 118°13'7 6.8
2014-Sep-19 01:33N 24°25' E 118°17'0 0.5
2014-Sep-19 00:33N 24°25' E 118°17'0 0.0
2014-Sep-18 23:32N 24°25' E 118°17'0 0.0
2014-Sep-18 22:33N 24°25' E 118°17'0 0.0
2014-Sep-18 21:33N 24°25' E 118°17'0 0.0
2014-Sep-18 20:33N 24°25' E 118°17'0 0.0
2014-Sep-18 19:33N 24°25' E 118°17'0 0.0
2014-Sep-18 18:33N 24°25' E 118°17'0 0.0
2014-Sep-18 17:33N 24°25' E 118°17'0 0.0
2014-Sep-18 16:31N 24°25' E 118°17'0 0.0
2014-Sep-18 15:34N 24°25' E 118°17'0 0.0
2014-Sep-18 14:33N 24°25' E 118°17'0 0.0
2014-Sep-18 09:33N 24°25' E 118°17'0 0.0
2014-Sep-18 08:33N 24°25' E 118°17'7 6.8
2014-Sep-18 07:32N 24°31' E 118°13'1 1.0
2014-Sep-18 06:33N 24°32' E 118°12'8 8.2
2014-Sep-18 05:33N 24°25' E 118°17'0 0.1
2014-Sep-18 04:32N 24°25' E 118°17'0 0.0
2014-Sep-18 03:33N 24°25' E 118°17'0 0.0
2014-Sep-18 02:33N 24°25' E 118°17'0 0.0
2014-Sep-18 01:33N 24°25' E 118°17'9 8.8
2014-Sep-18 00:33N 24°32' E 118°11'9 8.8
2014-Sep-17 23:33N 24°25' E 118°17'0 0.0
2014-Sep-17 22:33N 24°25' E 118°17'0 0.0
2014-Sep-17 21:31N 24°25' E 118°17'0 0.0
2014-Sep-17 20:33N 24°25' E 118°17'0 0.0
2014-Sep-17 19:34N 24°25' E 118°17'0 0.0
2014-Sep-17 18:33N 24°25' E 118°17'0 0.0
2014-Sep-17 17:33N 24°25' E 118°17'0 0.0
2014-Sep-17 16:33N 24°25' E 118°17'0 0.0
2014-Sep-17 15:32N 24°25' E 118°17'0 0.0
2014-Sep-17 14:31N 24°25' E 118°17'9 2.2
2014-Sep-17 10:26N 24°32' E 118°11'910.2
2014-Sep-17 09:33N 24°25' E 118°17'0 0.4
2014-Sep-17 08:33N 24°25' E 118°17'0 0.1
2014-Sep-17 07:34N 24°25' E 118°17'0 0.0
2014-Sep-17 06:33N 24°25' E 118°17'0 0.0
2014-Sep-17 05:24N 24°25' E 118°17'0 0.0
2014-Sep-17 04:32N 24°25' E 118°17'1 1.3
2014-Sep-17 03:31N 24°27' E 118°17'1 1.0
2014-Sep-17 02:13N 24°25' E 118°17'0 0.0
2014-Sep-17 01:22N 24°25' E 118°17'0 0.0
2014-Sep-17 00:31N 24°25' E 118°17'0 0.0
2014-Sep-16 23:33N 24°25' E 118°17'0 0.0
2014-Sep-16 22:32N 24°25' E 118°17'0 0.0
2014-Sep-16 21:33N 24°25' E 118°17'0 0.0
2014-Sep-16 20:33N 24°25' E 118°17'0 0.0
2014-Sep-16 19:33N 24°25' E 118°17'0 0.0
2014-Sep-16 18:34N 24°25' E 118°17'0 0.0
2014-Sep-16 17:34N 24°25' E 118°17'0 0.0
2014-Sep-16 16:33N 24°25' E 118°17'0 0.0
2014-Sep-16 15:23N 24°25' E 118°17'0 0.1
2014-Sep-16 09:33N 24°25' E 118°17'9 8.9
2014-Sep-16 08:33N 24°32' E 118°11'8 8.3
2014-Sep-16 07:32N 24°26' E 118°17'1 0.6
2014-Sep-16 06:33N 24°25' E 118°17'0 0.5
2014-Sep-16 05:33N 24°25' E 118°17'0 0.0
2014-Sep-16 04:33N 24°25' E 118°17'6 6.5
2014-Sep-16 03:33N 24°31' E 118°14'1 0.8
2014-Sep-16 02:33N 24°30' E 118°14'6 6.1
2014-Sep-16 01:33N 24°25' E 118°17'0 0.5
2014-Sep-16 00:33N 24°25' E 118°17'0 0.0
2014-Sep-15 23:33N 24°25' E 118°17'0 0.0
2014-Sep-15 22:33N 24°25' E 118°17'0 0.0
2014-Sep-15 21:33N 24°25' E 118°17'0 0.0
2014-Sep-15 20:33N 24°25' E 118°17'0 0.0
2014-Sep-15 19:33N 24°25' E 118°17'0 0.0
2014-Sep-15 18:33N 24°25' E 118°17'0 0.0
2014-Sep-15 17:33N 24°25' E 118°17'0 0.0
2014-Sep-15 16:33N 24°25' E 118°17'0 0.0
2014-Sep-15 15:33N 24°25' E 118°17'0 0.0
2014-Sep-15 14:33N 24°25' E 118°17'0 0.0
2014-Sep-15 09:30N 24°25' E 118°17'0 0.0
2014-Sep-15 08:23N 24°25' E 118°17'0 0.1
2014-Sep-15 07:30N 24°25' E 118°17'8 8.5
2014-Sep-15 06:33N 24°32' E 118°12'1 1.4
2014-Sep-15 05:33N 24°31' E 118°13'7 7.0
2014-Sep-15 04:33N 24°25' E 118°17'0 0.1
2014-Sep-15 03:33N 24°25' E 118°17'4 3.6
2014-Sep-15 02:33N 24°28' E 118°16'4 3.8
2014-Sep-15 01:33N 24°31' E 118°13'7 7.1
2014-Sep-15 00:33N 24°25' E 118°17'0 0.0
2014-Sep-14 17:33N 24°25' E 118°17'0 0.0
2014-Sep-14 16:33N 24°25' E 118°17'0 0.0
2014-Sep-14 15:33N 24°25' E 118°17'0 0.0
2014-Sep-14 14:34N 24°25' E 118°17'0 0.0
2014-Sep-14 10:31N 24°25' E 118°17'9 9.3
2014-Sep-14 09:33N 24°32' E 118°11'9 8.7
2014-Sep-14 08:33N 24°25' E 118°17'0 0.0
2014-Sep-13 18:20N 24°25' E 118°17'0 0.0
2014-Sep-13 09:33N 24°25' E 118°17'0 0.0
2014-Sep-13 08:33N 24°25' E 118°17'7 6.8
2014-Sep-13 07:33N 24°31' E 118°13'1 1.1
2014-Sep-13 06:33N 24°32' E 118°12'8 8.0
2014-Sep-13 05:32N 24°25' E 118°17'0 0.5
2014-Sep-13 04:33N 24°25' E 118°17'0 0.0
2014-Sep-13 03:33N 24°25' E 118°17'0 0.0
2014-Sep-13 02:33N 24°25' E 118°17'3 2.8
2014-Sep-13 01:32N 24°28' E 118°17'4 3.6
2014-Sep-13 00:33N 24°31' E 118°14'7 6.6
2014-Sep-12 23:33N 24°25' E 118°17'0 0.0
2014-Sep-12 22:33N 24°25' E 118°17'0 0.0
2014-Sep-12 21:33N 24°25' E 118°17'0 0.0
2014-Sep-12 20:33N 24°25' E 118°17'0 0.0
2014-Sep-12 19:33N 24°25' E 118°17'0 0.0
2014-Sep-12 18:33N 24°25' E 118°17'0 0.0
2014-Sep-12 17:33N 24°25' E 118°17'0 0.0
2014-Sep-12 16:33N 24°25' E 118°17'0 0.0
2014-Sep-12 15:33N 24°25' E 118°17'0 0.0
2014-Sep-12 14:32N 24°25' E 118°17'0 0.0
2014-Sep-12 13:21N 24°25' E 118°17'0 0.0
2014-Sep-12 11:10N 24°25' E 118°17'914.8
2014-Sep-12 10:33N 24°32' E 118°11'9 8.6
2014-Sep-12 09:30N 24°25' E 118°17'0 0.5
2014-Sep-12 08:34N 24°25' E 118°17'0 0.0
2014-Sep-12 07:33N 24°25' E 118°17'0 0.0
2014-Sep-12 06:33N 24°25' E 118°17'0 0.0
2014-Sep-12 05:33N 24°25' E 118°17'0 0.0
2014-Sep-12 04:33N 24°25' E 118°17'  

Dump ship's entire track history